createdAt,value
2023-01-27T00:08:33.166Z,3.97
2023-01-27T00:23:54.360Z,3.47
2023-01-27T00:38:57.389Z,3.13
2023-01-27T00:54:02.783Z,3.20
2023-01-27T01:09:05.373Z,4.07
2023-01-27T01:24:08.068Z,4.17
2023-01-27T01:39:10.958Z,9.13
2023-01-27T01:54:18.034Z,6.23
2023-01-27T02:09:22.088Z,4.53
2023-01-27T02:24:37.364Z,3.80
2023-01-27T02:39:43.214Z,4.70
2023-01-27T02:54:45.788Z,9.33
2023-01-27T03:09:48.313Z,9.93
2023-01-27T03:24:50.672Z,7.80
2023-01-27T03:40:12.193Z,10.73
2023-01-27T03:55:15.240Z,10.33
2023-01-27T04:10:18.257Z,12.70
2023-01-27T04:25:20.656Z,11.80
2023-01-27T04:40:23.383Z,6.20
2023-01-27T04:55:26.027Z,6.77
2023-01-27T05:10:28.466Z,6.03
2023-01-27T05:25:30.770Z,6.13
2023-01-27T05:40:33.256Z,7.27
2023-01-27T05:55:35.684Z,9.33
2023-01-27T06:10:38.154Z,13.30
2023-01-27T06:25:43.626Z,15.13
2023-01-27T06:40:47.367Z,19.60
2023-01-27T06:55:59.033Z,16.00
2023-01-27T07:11:05.135Z,15.77
2023-01-27T07:26:19.164Z,16.17
2023-01-27T07:41:26.270Z,16.00
2023-01-27T07:56:28.751Z,15.87
2023-01-27T08:11:31.136Z,14.77
2023-01-27T08:26:33.498Z,21.33
2023-01-27T08:41:35.844Z,19.33
2023-01-27T08:56:38.274Z,14.93
2023-01-27T09:11:43.412Z,13.20
2023-01-27T09:26:46.363Z,11.50
2023-01-27T09:42:16.664Z,10.53
2023-01-27T09:58:04.050Z,10.53
2023-01-27T10:13:16.400Z,9.80
2023-01-27T10:28:24.297Z,9.93
2023-01-27T10:44:03.913Z,10.23
2023-01-27T10:59:28.180Z,8.93
2023-01-27T11:14:38.898Z,8.77
2023-01-27T11:29:59.990Z,9.13
2023-01-27T11:45:02.846Z,9.10
2023-01-27T12:00:18.283Z,8.93
2023-01-27T12:15:20.811Z,8.73
2023-01-27T12:30:26.423Z,8.27
2023-01-27T12:45:31.167Z,8.77
2023-01-27T13:00:34.635Z,8.07
2023-01-27T13:15:37.101Z,8.17
2023-01-27T13:30:46.886Z,9.83
2023-01-27T13:46:17.174Z,10.00
2023-01-27T14:01:43.839Z,10.77
2023-01-27T14:17:26.452Z,10.63
2023-01-27T14:32:39.169Z,9.77
2023-01-27T14:47:58.465Z,8.90
2023-01-27T15:03:36.301Z,8.00
2023-01-27T15:18:48.181Z,6.73
2023-01-27T15:34:03.926Z,5.87
2023-01-27T15:49:17.846Z,6.57
2023-01-27T16:04:27.180Z,5.27
2023-01-27T16:19:31.353Z,8.57
2023-01-27T16:34:39.727Z,7.70
2023-01-27T16:49:43.665Z,7.50
2023-01-27T17:04:56.090Z,10.87
2023-01-27T17:20:04.333Z,10.40
2023-01-27T17:35:19.585Z,8.57
2023-01-27T17:50:25.115Z,9.23
2023-01-27T18:05:33.768Z,8.60
2023-01-27T18:20:36.393Z,9.47
2023-01-27T18:35:42.012Z,10.80
2023-01-27T18:50:46.782Z,9.93
2023-01-27T19:05:53.207Z,21.23
2023-01-27T19:20:56.183Z,7.63
2023-01-27T19:36:14.017Z,12.03
2023-01-27T19:51:17.833Z,8.60
2023-01-27T20:06:28.641Z,9.30
2023-01-27T20:21:32.287Z,10.87
2023-01-27T20:36:34.808Z,10.57
2023-01-27T20:51:37.272Z,10.53
2023-01-27T21:06:39.670Z,11.70
2023-01-27T21:21:44.796Z,12.37
2023-01-27T21:36:47.345Z,8.60
2023-01-27T21:51:50.309Z,9.63
2023-01-27T22:06:52.747Z,9.53
2023-01-27T22:21:55.885Z,9.97
2023-01-27T22:36:58.399Z,8.60
2023-01-27T22:52:00.856Z,6.40
2023-01-27T23:07:03.306Z,5.57
2023-01-27T23:22:05.788Z,6.77
2023-01-27T23:37:08.135Z,8.53
2023-01-27T23:52:10.571Z,8.43
